Time;durP1;ratioP1;P1;durP2;ratioP2;P2;SDS_P1;SDS_P2;PMS_P1;PMS_P2;Temp;Humidity;BMP_temperature;BMP_pressure;BME280_temperature;BME280_humidity;BME280_pressure;Samples;Min_cycle;Max_cycle;Signal;HPM_P1;HPM_P2
2023/10/13 00:00:57;;;;;;;14.73;7.72;;;;;;;;;;4966114;28;20023;-74
2023/10/13 00:03:22;;;;;;;13.93;7.43;;;;;;;;;;4961511;28;20031;-75
2023/10/13 00:05:52;;;;;;;17.15;7.20;;;;;;;;;;4963868;28;20441;-76
2023/10/13 00:08:17;;;;;;;12.82;7.72;;;;;;;;;;4964984;28;20022;-76
2023/10/13 00:10:43;;;;;;;12.40;6.97;;;;;;;;;;4962681;28;20031;-75
2023/10/13 00:13:15;;;;;;;12.98;7.72;;;;;;;;;;4962124;28;20762;-75
2023/10/13 00:15:57;;;;;;;11.68;6.93;;;;;;;;;;4967479;28;20455;-75
2023/10/13 00:18:41;;;;;;;13.30;7.75;;;;;;;;;;4962120;28;20026;-75
2023/10/13 00:21:19;;;;;;;11.85;7.40;;;;;;;;;;4957227;28;20043;-75
2023/10/13 00:23:54;;;;;;;15.75;8.18;;;;;;;;;;4960491;28;20042;-75
2023/10/13 00:26:28;;;;;;;14.10;7.68;;;;;;;;;;4963998;28;20030;-75
2023/10/13 00:31:38;;;;;;;12.55;7.95;;;;;;;;;;4963590;28;20092;-74
2023/10/13 00:37:18;;;;;;;15.73;8.27;;;;;;;;;;4963428;28;20042;-76
2023/10/13 00:39:46;;;;;;;14.13;8.02;;;;;;;;;;4962873;28;20027;-71
2023/10/13 00:42:19;;;;;;;18.98;8.93;;;;;;;;;;4960926;28;20077;-70
2023/10/13 00:44:48;;;;;;;14.40;7.88;;;;;;;;;;4963256;28;20054;-70
2023/10/13 00:47:37;;;;;;;26.02;7.85;;;;;;;;;;4959489;28;20038;-71
2023/10/13 00:50:00;;;;;;;16.08;8.00;;;;;;;;;;4961373;28;20023;-71
2023/10/13 00:52:25;;;;;;;15.83;7.73;;;;;;;;;;4962312;28;20037;-72
2023/10/13 00:54:51;;;;;;;14.32;8.15;;;;;;;;;;4964751;28;20765;-71
2023/10/13 00:57:32;;;;;;;16.85;7.57;;;;;;;;;;4963945;28;20039;-72
2023/10/13 00:59:57;;;;;;;17.48;7.82;;;;;;;;;;4961721;28;20485;-71
2023/10/13 01:02:41;;;;;;;14.95;7.90;;;;;;;;;;4959938;28;20035;-71
2023/10/13 01:05:11;;;;;;;14.50;8.13;;;;;;;;;;4963604;28;20034;-71
2023/10/13 01:07:39;;;;;;;13.68;7.32;;;;;;;;;;4961640;28;20039;-70
2023/10/13 01:10:09;;;;;;;14.55;7.68;;;;;;;;;;4957584;28;20103;-71
2023/10/13 01:12:34;;;;;;;15.23;7.55;;;;;;;;;;4959167;28;20093;-69
2023/10/13 01:15:07;;;;;;;12.73;7.57;;;;;;;;;;4966861;28;20628;-72
2023/10/13 01:17:33;;;;;;;15.52;7.70;;;;;;;;;;4964556;28;20029;-72
2023/10/13 01:19:59;;;;;;;14.55;7.75;;;;;;;;;;4964637;28;20151;-73
2023/10/13 01:22:24;;;;;;;15.70;7.72;;;;;;;;;;4962095;28;20027;-71
2023/10/13 01:24:51;;;;;;;15.13;7.80;;;;;;;;;;4967756;28;20162;-71
2023/10/13 01:27:25;;;;;;;13.93;8.05;;;;;;;;;;4963789;28;20027;-74
2023/10/13 01:30:05;;;;;;;13.30;7.30;;;;;;;;;;4964378;28;20034;-73
2023/10/13 01:32:30;;;;;;;13.75;6.95;;;;;;;;;;4965556;28;20026;-74
2023/10/13 01:34:57;;;;;;;9.88;6.43;;;;;;;;;;4965383;28;20053;-75
2023/10/13 01:37:23;;;;;;;13.02;7.43;;;;;;;;;;4966806;28;20045;-75
2023/10/13 01:39:49;;;;;;;13.93;6.82;;;;;;;;;;4967203;28;20031;-75
2023/10/13 01:42:19;;;;;;;13.63;6.82;;;;;;;;;;4964476;28;20081;-71
2023/10/13 01:44:45;;;;;;;11.88;6.13;;;;;;;;;;4963286;28;20034;-70
2023/10/13 01:47:10;;;;;;;10.55;5.97;;;;;;;;;;4964790;28;20030;-71
2023/10/13 01:49:49;;;;;;;12.73;6.77;;;;;;;;;;4965639;28;20037;-70
2023/10/13 01:52:15;;;;;;;13.15;6.63;;;;;;;;;;4966700;28;20031;-72
2023/10/13 01:54:44;;;;;;;10.10;6.25;;;;;;;;;;4956342;28;20512;-71
2023/10/13 01:57:14;;;;;;;12.02;6.13;;;;;;;;;;4964925;28;20093;-70
2023/10/13 01:59:43;;;;;;;9.75;6.05;;;;;;;;;;4964146;28;20065;-71
2023/10/13 02:02:12;;;;;;;9.15;5.90;;;;;;;;;;4963886;28;20035;-75
2023/10/13 02:04:42;;;;;;;10.90;6.10;;;;;;;;;;4965039;28;20027;-74
2023/10/13 02:07:08;;;;;;;11.02;6.30;;;;;;;;;;4964931;28;20050;-74
2023/10/13 02:09:36;;;;;;;14.63;6.05;;;;;;;;;;4964590;28;20053;-71
2023/10/13 02:12:02;;;;;;;13.10;6.13;;;;;;;;;;4966644;28;20035;-71
2023/10/13 02:14:27;;;;;;;13.88;5.78;;;;;;;;;;4962708;28;20838;-70
2023/10/13 02:17:11;;;;;;;12.57;5.87;;;;;;;;;;4968273;28;20031;-71
2023/10/13 02:19:39;;;;;;;11.00;5.70;;;;;;;;;;4954240;28;20305;-72
2023/10/13 02:22:07;;;;;;;9.70;5.93;;;;;;;;;;4964792;28;20031;-71
2023/10/13 02:24:32;;;;;;;10.27;6.40;;;;;;;;;;4960861;28;20038;-71
2023/10/13 02:27:04;;;;;;;12.65;5.80;;;;;;;;;;4961477;28;20039;-71
2023/10/13 02:29:30;;;;;;;8.70;5.45;;;;;;;;;;4967405;28;20023;-72
2023/10/13 02:31:55;;;;;;;11.40;5.77;;;;;;;;;;4963446;28;20046;-70
2023/10/13 02:34:23;;;;;;;15.02;6.40;;;;;;;;;;4963082;28;20310;-71
2023/10/13 02:36:48;;;;;;;9.70;5.78;;;;;;;;;;4968062;28;20030;-71
2023/10/13 02:39:16;;;;;;;11.35;5.95;;;;;;;;;;4966699;28;20043;-70
2023/10/13 02:41:45;;;;;;;11.50;6.40;;;;;;;;;;4964907;28;20035;-72
2023/10/13 02:44:19;;;;;;;13.77;5.82;;;;;;;;;;4966360;28;20118;-71
2023/10/13 02:46:49;;;;;;;12.32;6.07;;;;;;;;;;4965361;28;20070;-71
2023/10/13 02:49:19;;;;;;;12.65;6.38;;;;;;;;;;4967952;28;20106;-72
2023/10/13 02:51:44;;;;;;;13.05;6.15;;;;;;;;;;4963109;28;20047;-70
2023/10/13 02:54:10;;;;;;;11.83;5.93;;;;;;;;;;4965878;28;20190;-71
2023/10/13 02:56:36;;;;;;;10.02;5.57;;;;;;;;;;4962555;28;20038;-71
2023/10/13 02:59:05;;;;;;;11.55;5.65;;;;;;;;;;4964293;28;20027;-72
2023/10/13 03:01:34;;;;;;;10.95;5.78;;;;;;;;;;4961888;28;20038;-71
2023/10/13 03:03:59;;;;;;;10.40;5.90;;;;;;;;;;4964736;28;20037;-69
2023/10/13 03:06:32;;;;;;;11.20;5.72;;;;;;;;;;4967588;28;20023;-71
2023/10/13 03:09:00;;;;;;;10.65;5.60;;;;;;;;;;4963785;28;20485;-70
2023/10/13 03:11:25;;;;;;;11.80;5.82;;;;;;;;;;4962253;28;20485;-69
2023/10/13 03:13:52;;;;;;;11.23;5.57;;;;;;;;;;4967866;28;20038;-72
2023/10/13 03:16:19;;;;;;;12.77;6.70;;;;;;;;;;4965350;28;20384;-70
2023/10/13 03:18:53;;;;;;;12.93;6.20;;;;;;;;;;4965546;28;20031;-70
2023/10/13 03:21:29;;;;;;;12.00;5.47;;;;;;;;;;4962681;28;20031;-71
2023/10/13 03:24:04;;;;;;;10.60;5.50;;;;;;;;;;4963333;28;20046;-70
2023/10/13 03:26:29;;;;;;;9.70;5.43;;;;;;;;;;4966384;28;20031;-69
2023/10/13 03:28:56;;;;;;;10.90;6.10;;;;;;;;;;4966459;28;20041;-71
2023/10/13 03:31:28;;;;;;;11.25;6.05;;;;;;;10.46;nan;100854.53;4962864;28;20045;-69
2023/10/13 03:33:59;;;;;;;9.55;5.65;;;;;;;10.44;nan;100854.78;4964669;28;20019;-70
2023/10/13 03:39:10;;;;;;;11.60;6.25;;;;;;;10.26;nan;100817.78;4963207;28;20045;-71
2023/10/13 03:41:38;;;;;;;13.82;5.93;;;;;;;10.35;nan;100833.16;4961811;28;20073;-70
2023/10/13 03:44:38;;;;;;;11.70;6.00;;;;;;;10.46;nan;100855.34;4965222;28;20035;-69
2023/10/13 03:46:55;;;;;;;11.23;6.15;;;;;;;10.44;nan;100857.41;4961419;28;20046;-69
2023/10/13 03:49:21;;;;;;;8.73;5.47;;;;;;;10.45;nan;100858.22;4965537;28;20023;-70
2023/10/13 03:51:50;;;;;;;12.55;5.47;;;;;;;10.51;nan;100873.13;4962967;28;20122;-70
2023/10/13 03:54:16;;;;;;;12.85;6.05;;;;;;;10.41;nan;100856.00;4963002;28;20077;-72
2023/10/13 03:56:44;;;;;;;13.95;7.28;;;;;;;10.52;nan;100878.19;4958344;28;20130;-71
2023/10/13 03:59:18;;;;;;;11.63;6.13;;;;;;;10.52;nan;100886.09;4962958;28;20042;-72
2023/10/13 04:01:49;;;;;;;13.18;6.35;;;;;;;10.52;nan;100895.84;4964413;28;20030;-73
2023/10/13 04:04:29;;;;;;;14.88;6.70;;;;;;;10.43;nan;100882.91;4965275;28;20105;-70
2023/10/13 04:07:13;;;;;;;12.88;6.20;;;;;;;10.46;nan;100884.31;4961957;28;20090;-71
2023/10/13 04:17:25;;;;;;;9.20;6.03;;;;;;;10.30;nan;100861.94;4966379;28;20035;-71
2023/10/13 04:30:57;;;;;;;20.88;6.80;;;;;;;10.46;nan;100897.47;4965179;28;20500;-71
2023/10/13 04:34:19;;;;;;;12.07;6.22;;;;;;;10.47;nan;100903.56;4963980;28;20031;-70
2023/10/13 04:36:16;;;;;;;10.95;5.82;;;;;;;10.48;nan;100907.81;4954540;28;20189;-71
2023/10/13 05:51:43;;;;;;;15.85;6.07;;;;;;;;;;4980540;28;20031;-77
2023/10/13 06:29:34;;;;;;;16.83;6.20;;;;;;;10.57;nan;100936.31;4978715;28;20614;-81
2023/10/13 06:32:01;;;;;;;15.23;6.50;;;;;;;11.29;nan;101033.53;4976214;28;20047;-74
2023/10/13 06:34:45;;;;;;;16.83;7.35;;;;;;;11.50;nan;101046.38;4963346;28;20038;-73
2023/10/13 06:37:24;;;;;;;13.65;7.35;;;;;;;11.56;nan;101057.09;4963731;28;20062;-73
2023/10/13 06:39:56;;;;;;;16.17;6.05;;;;;;;11.56;nan;101049.97;4963977;28;20034;-73
2023/10/13 06:42:27;;;;;;;9.93;5.65;;;;;;;11.66;nan;101050.31;4967669;28;20023;-77
2023/10/13 06:44:56;;;;;;;15.10;6.30;;;;;;;11.74;nan;101051.06;4962882;28;20037;-73
2023/10/13 06:47:22;;;;;;;14.37;6.73;;;;;;;11.89;nan;101064.75;4964790;28;20030;-74
2023/10/13 06:49:51;;;;;;;17.85;6.68;;;;;;;12.02;nan;101074.38;4961404;28;20113;-74
2023/10/13 06:52:17;;;;;;;13.73;6.55;;;;;;;11.97;nan;101053.94;4964440;28;20047;-74
2023/10/13 06:54:43;;;;;;;15.63;6.10;;;;;;;12.13;nan;101063.91;4963551;28;20042;-74
2023/10/13 06:57:14;;;;;;;11.32;6.45;;;;;;;12.22;nan;101064.44;4966454;28;20083;-73
2023/10/13 06:59:42;;;;;;;14.57;5.72;;;;;;;12.21;nan;101048.81;4967743;28;20038;-75
2023/10/13 07:02:20;;;;;;;17.23;6.43;;;;;;;12.41;nan;101077.66;4967724;28;20444;-75
2023/10/13 07:04:46;;;;;;;15.68;6.82;;;;;;;12.48;nan;101084.47;4962895;28;20118;-74
2023/10/13 07:07:15;;;;;;;17.88;5.97;;;;;;;12.45;nan;101074.34;4966136;28;20110;-75
2023/10/13 07:09:49;;;;;;;12.15;5.70;;;;;;;12.64;nan;101082.25;4966320;28;20027;-76
2023/10/13 07:12:26;;;;;;;17.20;7.38;;;;;;;;;;4965042;28;20060;-75
2023/10/13 07:14:51;;;;;;;19.52;7.45;;;;;;;;;;4966634;28;20034;-75
2023/10/13 07:17:23;;;;;;;23.77;8.85;;;;;;;;;;4962421;28;20026;-77
2023/10/13 07:19:53;;;;;;;27.15;9.20;;;;;;;;;;4961020;28;20149;-76
2023/10/13 07:22:19;;;;;;;16.80;7.97;;;;;;;13.01;nan;101066.34;4966841;28;20452;-75
2023/10/13 07:24:50;;;;;;;15.65;7.28;;;;;;;13.07;nan;101054.84;4964249;28;20110;-77
2023/10/13 07:27:24;;;;;;;14.27;6.60;;;;;;;13.08;nan;101053.84;4967584;28;20050;-76
2023/10/13 07:30:14;;;;;;;16.75;5.40;;;;;;;13.24;nan;101071.72;4966431;28;20034;-75
2023/10/13 07:32:45;;;;;;;12.40;5.78;;;;;;;13.37;nan;101079.47;4961843;28;20023;-75
2023/10/13 07:35:12;;;;;;;13.60;5.53;;;;;;;13.53;nan;101067.44;4965303;28;20481;-76
2023/10/13 07:37:41;;;;;;;13.35;5.72;;;;;;;;;;4963267;28;20138;-76
2023/10/13 07:40:21;;;;;;;15.18;5.60;;;;;;;;;;4963451;28;20027;-77
2023/10/13 07:42:47;;;;;;;13.27;4.95;;;;;;;;;;4966700;28;20035;-74
2023/10/13 07:45:13;;;;;;;16.08;6.10;;;;;;;14.11;nan;101070.34;4966547;28;20061;-77
2023/10/13 07:47:39;;;;;;;16.95;5.90;;;;;;;14.25;nan;101071.69;4963625;28;20085;-76
2023/10/13 07:50:06;;;;;;;14.40;6.45;;;;;;;;;;4967680;28;20121;-78
2023/10/13 07:52:40;;;;;;;15.23;7.95;;;;;;;14.23;nan;101042.78;4975585;28;20031;-78
2023/10/13 07:55:11;;;;;;;12.60;6.85;;;;;;;13.83;nan;100966.72;4969738;28;20031;-81
2023/10/13 07:57:59;;;;;;;14.63;7.88;;;;;;;;;;4966985;28;20218;-76
2023/10/13 08:08:40;;;;;;;15.38;8.45;;;;;;;;;;4969621;28;20046;-79
2023/10/13 08:13:55;;;;;;;14.40;8.95;;;;;;;;;;4970092;28;20090;-77
2023/10/13 08:16:22;;;;;;;15.60;9.07;;;;;;;;;;4964099;28;20033;-76
2023/10/13 08:18:52;;;;;;;20.50;8.90;;;;;;;15.27;nan;101091.44;4962168;28;20095;-75
2023/10/13 08:21:18;;;;;;;16.90;8.18;;;;;;;;;;4963482;28;20027;-76
2023/10/13 08:34:38;;;;;;;14.57;8.68;;;;;;;;;;4929955;29;20103;-78
2023/10/13 08:37:19;;;;;;;19.85;8.82;;;;;;;16.03;nan;101064.53;4908916;29;20046;-78
2023/10/13 08:53:27;;;;;;;27.73;15.07;;;;;;;;;;4928593;29;20036;-77
2023/10/13 08:58:59;;;;;;;22.35;13.93;;;;;;;;;;4929580;29;20080;-77
2023/10/13 09:01:13;;;;;;;29.15;15.85;;;;;;;;;;4928796;29;20122;-77
2023/10/13 09:03:42;;;;;;;27.90;16.88;;;;;;;;;;4928908;29;20127;-77
2023/10/13 09:06:14;;;;;;;32.28;15.00;;;;;;;;;;4909546;29;20023;-76
2023/10/13 09:11:27;;;;;;;28.73;17.02;;;;;;;;;;4964238;28;20053;-77
2023/10/13 09:13:52;;;;;;;26.73;16.48;;;;;;;;;;4964737;28;20595;-78
2023/10/13 09:19:06;;;;;;;26.83;15.68;;;;;;;17.73;nan;101055.38;4962402;28;20033;-78
2023/10/13 09:24:43;;;;;;;27.60;13.88;;;;;;;;;;4975555;28;20065;-81
2023/10/13 09:27:03;;;;;;;20.40;12.30;;;;;;;;;;4976315;28;20031;-80
2023/10/13 09:29:29;;;;;;;20.75;12.52;;;;;;;;;;4973454;28;20027;-80
2023/10/13 09:32:00;;;;;;;25.48;12.90;;;;;;;;;;4985053;28;20057;-80
2023/10/13 09:34:29;;;;;;;29.25;16.20;;;;;;;;;;4973865;28;20026;-80
2023/10/13 09:36:57;;;;;;;23.75;15.10;;;;;;;;;;4965400;28;20030;-80
2023/10/13 09:42:10;;;;;;;23.70;13.65;;;;;;;;;;4973490;28;20027;-80
2023/10/13 09:44:37;;;;;;;26.02;14.13;;;;;;;;;;4973345;28;20027;-77
2023/10/13 09:47:09;;;;;;;25.65;13.65;;;;;;;;;;4969451;28;20126;-78
2023/10/13 09:49:45;;;;;;;18.40;11.93;;;;;;;19.35;nan;101007.38;4967107;28;20041;-77
2023/10/13 09:52:19;;;;;;;20.35;12.25;;;;;;;19.44;nan;101008.44;4967198;28;20023;-76
2023/10/13 09:54:59;;;;;;;19.38;10.45;;;;;;;;;;4963181;28;20481;-76
2023/10/13 09:57:34;;;;;;;21.05;11.02;;;;;;;19.61;nan;100992.09;4964074;28;20066;-75
2023/10/13 10:06:04;;;;;;;23.98;11.43;;;;;;;19.93;nan;100985.63;4966381;28;20140;-77
2023/10/13 10:08:34;;;;;;;21.63;11.77;;;;;;;20.09;nan;100986.38;4966673;28;20124;-77
2023/10/13 10:11:15;;;;;;;21.75;11.35;;;;;;;20.25;nan;100995.91;4964275;28;20362;-77
2023/10/13 10:14:09;;;;;;;21.92;10.73;;;;;;;20.42;nan;100990.19;4962491;28;20031;-77
2023/10/13 10:17:07;;;;;;;24.35;11.45;;;;;;;20.55;nan;100970.06;4967041;28;20031;-77
2023/10/13 10:20:05;;;;;;;20.77;10.45;;;;;;;20.55;nan;100954.00;4964395;28;20058;-76
2023/10/13 10:22:44;;;;;;;19.48;10.57;;;;;;;20.76;nan;100976.13;4962960;28;20035;-77
2023/10/13 10:25:25;;;;;;;16.35;10.90;;;;;;;20.86;nan;100976.03;4964415;28;20696;-76
2023/10/13 10:27:58;;;;;;;22.65;10.90;;;;;;;20.91;nan;101004.66;4964720;28;20143;-78
2023/10/13 10:30:26;;;;;;;15.40;10.50;;;;;;;20.86;nan;100922.50;4967315;28;20426;-77
2023/10/13 10:32:59;;;;;;;19.48;10.82;;;;;;;21.18;nan;101007.63;4964226;28;20031;-78
2023/10/13 10:35:29;;;;;;;14.52;9.30;;;;;;;21.30;nan;100955.56;4964464;28;20026;-77
2023/10/13 10:38:03;;;;;;;17.35;10.90;;;;;;;21.44;nan;100949.28;4966523;28;20061;-77
2023/10/13 10:40:47;;;;;;;17.27;10.55;;;;;;;21.55;nan;100957.19;4965490;28;20547;-75
2023/10/13 10:43:17;;;;;;;17.15;9.75;;;;;;;21.69;nan;100907.19;4964530;28;20513;-75
2023/10/13 10:45:49;;;;;;;20.73;10.55;;;;;;;21.76;nan;100950.53;4963658;28;20495;-77
2023/10/13 10:48:21;;;;;;;19.55;10.20;;;;;;;21.91;nan;100968.34;4964320;28;20971;-75
2023/10/13 10:50:55;;;;;;;20.65;11.25;;;;;;;22.00;nan;100936.28;4966868;28;20027;-78
2023/10/13 10:53:33;;;;;;;19.80;11.05;;;;;;;22.16;nan;100935.00;4965760;28;20024;-76
2023/10/13 10:56:08;;;;;;;20.45;10.40;;;;;;;22.33;nan;100945.25;4966433;28;20096;-76
2023/10/13 10:58:43;;;;;;;17.95;10.13;;;;;;;22.48;nan;100920.91;4965621;28;20619;-77
2023/10/13 11:01:19;;;;;;;19.50;10.68;;;;;;;22.63;nan;100938.66;4964287;28;20030;-77
2023/10/13 11:04:09;;;;;;;17.23;10.07;;;;;;;22.80;nan;100921.22;4970236;28;20054;-76
2023/10/13 11:06:41;;;;;;;14.30;9.20;;;;;;;;;;4966500;28;20039;-75
2023/10/13 11:11:52;;;;;;;21.60;9.93;;;;;;;23.07;nan;100915.91;4967926;28;20023;-77
2023/10/13 11:14:27;;;;;;;16.30;9.60;;;;;;;23.20;nan;100908.16;4964112;28;20027;-75
2023/10/13 11:16:55;;;;;;;21.33;10.98;;;;;;;23.33;nan;100899.31;4965798;28;20068;-77
2023/10/13 11:19:34;;;;;;;22.30;10.85;;;;;;;23.48;nan;100919.72;4968406;28;20058;-78
2023/10/13 11:22:10;;;;;;;19.73;9.82;;;;;;;23.54;nan;100895.13;4967190;28;20393;-79
2023/10/13 11:24:42;;;;;;;23.08;9.50;;;;;;;23.68;nan;100886.25;4971372;28;20035;-79
2023/10/13 11:27:21;;;;;;;22.55;9.48;;;;;;;23.71;nan;100885.66;4965947;28;20062;-85
2023/10/13 11:29:52;;;;;;;14.55;8.95;;;;;;;;;;4969619;28;20761;-78
2023/10/13 11:32:20;;;;;;;20.33;9.95;;;;;;;23.85;nan;100902.59;4967055;28;20042;-79
2023/10/13 11:34:45;;;;;;;22.23;10.45;;;;;;;23.93;nan;100942.22;4972070;28;20034;-84
2023/10/13 11:37:37;;;;;;;23.77;10.80;;;;;;;23.98;nan;100895.59;4972893;28;20421;-84
2023/10/13 11:40:09;;;;;;;21.25;9.35;;;;;;;24.01;nan;100886.13;4967605;28;20670;-77
2023/10/13 11:42:36;;;;;;;17.83;8.95;;;;;;;24.06;nan;100894.06;4970021;28;20489;-79
2023/10/13 11:45:55;;;;;;;18.77;8.68;;;;;;;24.02;nan;100879.66;4963909;28;20399;-77
2023/10/13 11:47:47;;;;;;;24.63;9.13;;;;;;;24.05;nan;100874.44;4959851;28;20414;-78
2023/10/13 11:50:13;;;;;;;17.27;8.98;;;;;;;24.09;nan;100882.72;4963303;28;20031;-78
2023/10/13 11:52:40;;;;;;;20.50;8.60;;;;;;;24.06;nan;100881.41;4963076;28;20027;-79
2023/10/13 11:55:06;;;;;;;18.50;8.25;;;;;;;24.15;nan;100964.91;4960318;28;20780;-78
2023/10/13 11:57:32;;;;;;;16.55;8.07;;;;;;;24.14;nan;100931.81;4964970;28;20031;-76
2023/10/13 12:00:16;;;;;;;18.45;8.02;;;;;;;24.22;nan;100940.28;4975120;28;20031;-78
2023/10/13 12:05:48;;;;;;;14.77;6.97;;;;;;;24.27;nan;100935.56;4962221;28;20038;-77
2023/10/13 12:08:21;;;;;;;20.77;7.60;;;;;;;24.30;nan;100937.66;4962511;28;20023;-76
2023/10/13 12:10:59;;;;;;;16.05;7.38;;;;;;;24.36;nan;100939.13;4965767;28;20134;-77
2023/10/13 12:13:25;;;;;;;16.70;7.32;;;;;;;24.38;nan;100941.53;4964608;28;20027;-78
2023/10/13 12:15:52;;;;;;;18.05;7.53;;;;;;;24.38;nan;100925.38;4964932;28;20026;-76
2023/10/13 12:18:19;;;;;;;21.38;7.97;;;;;;;24.44;nan;100926.81;4963644;28;20054;-80
2023/10/13 12:20:45;;;;;;;15.88;7.88;;;;;;;24.50;nan;100922.16;4965142;28;20062;-77
2023/10/13 12:23:16;;;;;;;21.13;7.40;;;;;;;24.60;nan;100924.63;4964622;28;20042;-78
2023/10/13 12:25:54;;;;;;;18.70;6.18;;;;;;;24.65;nan;100929.88;4964710;28;20038;-77
2023/10/13 12:28:23;;;;;;;14.48;6.45;;;;;;;24.67;nan;100926.88;4963443;28;20488;-78
2023/10/13 12:30:48;;;;;;;12.95;6.22;;;;;;;24.74;nan;100932.63;4959273;28;20038;-77
2023/10/13 12:33:23;;;;;;;13.45;5.55;;;;;;;24.63;nan;100905.94;4967239;28;20030;-78
2023/10/13 12:36:14;;;;;;;14.25;6.22;;;;;;;24.82;nan;100923.78;4963082;28;20027;-78
2023/10/13 12:52:16;;;;;;;18.25;6.95;;;;;;;25.17;nan;100919.41;4965347;28;20038;-78
2023/10/13 12:54:58;;;;;;;;;;;;;;;25.21;nan;100912.31;4968225;28;20671;-78
2023/10/13 12:57:28;;;;;;;14.40;6.07;;;;;;;25.25;nan;100907.06;4961744;28;20357;-78
2023/10/13 12:59:54;;;;;;;12.60;6.05;;;;;;;25.23;nan;100911.97;4964716;28;20034;-78
2023/10/13 13:02:27;;;;;;;16.13;6.25;;;;;;;25.05;nan;100871.47;4973136;28;20189;-76
2023/10/13 13:05:02;;;;;;;17.73;6.40;;;;;;;25.28;nan;100900.25;4968086;28;20026;-78
2023/10/13 13:07:29;;;;;;;16.90;6.95;;;;;;;25.21;nan;100879.97;4974742;28;20041;-78
2023/10/13 13:09:58;;;;;;;16.80;6.55;;;;;;;25.34;nan;100888.25;4968545;28;20507;-77
2023/10/13 13:12:24;;;;;;;13.25;7.30;;;;;;;25.43;nan;100899.84;4968964;28;20099;-77
2023/10/13 13:14:55;;;;;;;17.98;6.25;;;;;;;25.45;nan;100903.00;4984681;28;20497;-78
2023/10/13 13:17:23;;;;;;;9.57;6.28;;;;;;;25.37;nan;100887.59;4966398;28;20034;-77
2023/10/13 13:19:53;;;;;;;14.73;5.93;;;;;;;25.44;nan;100902.22;4968500;28;20393;-77
2023/10/13 13:22:20;;;;;;;16.35;6.80;;;;;;;25.36;nan;100886.81;4969226;28;20050;-78
2023/10/13 13:24:46;;;;;;;11.35;6.25;;;;;;;25.39;nan;100874.63;4969193;28;20029;-77
2023/10/13 13:27:24;;;;;;;16.85;6.10;;;;;;;25.47;nan;100892.72;4970878;28;20027;-76
2023/10/13 13:29:49;;;;;;;12.82;5.88;;;;;;;25.40;nan;100876.97;4971374;28;20034;-76
2023/10/13 13:32:24;;;;;;;14.77;6.43;;;;;;;25.42;nan;100873.97;4970842;28;20022;-76
2023/10/13 13:35:05;;;;;;;15.45;6.35;;;;;;;25.44;nan;100871.78;4966578;28;20106;-78
2023/10/13 13:37:34;;;;;;;13.30;6.38;;;;;;;25.44;nan;100869.88;4964996;28;20041;-77
2023/10/13 13:40:13;;;;;;;15.98;6.13;;;;;;;25.55;nan;100881.16;4966465;28;20038;-77
2023/10/13 13:42:40;;;;;;;14.95;6.45;;;;;;;25.55;nan;100870.38;4968130;28;20082;-79
2023/10/13 13:45:11;;;;;;;15.10;6.93;;;;;;;25.46;nan;100858.78;4967854;28;20078;-77
2023/10/13 13:47:37;;;;;;;12.35;6.20;;;;;;;25.56;nan;100871.16;4967993;28;20424;-79
2023/10/13 13:50:06;;;;;;;14.90;6.72;;;;;;;25.58;nan;100877.03;4968098;28;20030;-77
2023/10/13 13:52:33;;;;;;;15.48;6.32;;;;;;;25.41;nan;100845.44;4971364;28;20114;-79
2023/10/13 13:55:02;;;;;;;15.32;6.60;;;;;;;25.57;nan;100868.16;4969594;28;20023;-80
2023/10/13 13:57:30;;;;;;;15.25;6.53;;;;;;;25.37;nan;100845.25;4975788;28;20023;-81
2023/10/13 13:59:57;;;;;;;15.82;6.45;;;;;;;25.47;nan;100863.03;4971217;28;20070;-77
2023/10/13 14:02:23;;;;;;;14.02;6.63;;;;;;;25.44;nan;100861.00;4965733;28;20031;-76
2023/10/13 14:04:52;;;;;;;14.85;6.25;;;;;;;25.55;nan;100869.56;4963347;28;20028;-77
2023/10/13 14:07:23;;;;;;;18.08;7.30;;;;;;;25.48;nan;100861.97;4974829;28;20023;-77
2023/10/13 14:09:51;;;;;;;23.92;7.40;;;;;;;25.44;nan;100858.28;4966800;28;20030;-78
2023/10/13 14:12:29;;;;;;;23.83;6.87;;;;;;;25.36;nan;100846.38;4966364;28;20023;-76
2023/10/13 14:14:55;;;;;;;17.85;7.00;;;;;;;25.38;nan;100857.66;4967020;28;20509;-76
2023/10/13 14:17:35;;;;;;;18.40;6.70;;;;;;;25.34;nan;100820.84;4967022;28;20035;-76
2023/10/13 14:20:08;;;;;;;12.43;6.20;;;;;;;25.33;nan;100830.03;4965580;28;20078;-77
2023/10/13 14:22:36;;;;;;;15.43;6.40;;;;;;;25.25;nan;100813.53;4964110;28;20063;-76
2023/10/13 14:25:08;;;;;;;17.33;6.53;;;;;;;25.22;nan;100826.84;4962372;28;20564;-77
2023/10/13 14:27:35;;;;;;;13.55;6.20;;;;;;;25.17;nan;100865.50;4963687;28;20053;-76
2023/10/13 14:30:02;;;;;;;14.05;6.28;;;;;;;25.11;nan;100855.16;4964062;28;20052;-76
2023/10/13 14:32:28;;;;;;;14.07;7.07;;;;;;;25.01;nan;100842.75;4979126;28;20421;-77
2023/10/13 14:34:56;;;;;;;18.65;6.85;;;;;;;24.92;nan;100826.53;4964537;28;20027;-75
2023/10/13 14:37:30;;;;;;;12.57;6.87;;;;;;;25.07;nan;100855.00;4964868;28;20023;-77
2023/10/13 14:39:57;;;;;;;16.20;6.28;;;;;;;24.99;nan;100850.34;4962520;28;20733;-76
2023/10/13 14:42:27;;;;;;;15.23;7.07;;;;;;;24.99;nan;100853.81;4965452;28;20030;-76
2023/10/13 14:44:56;;;;;;;15.32;6.80;;;;;;;24.96;nan;100850.97;4962131;28;20058;-74
2023/10/13 14:47:25;;;;;;;15.15;6.78;;;;;;;24.83;nan;100834.59;4960980;28;20022;-76
2023/10/13 14:50:03;;;;;;;17.15;7.18;;;;;;;24.78;nan;100832.06;4961349;28;20043;-76
2023/10/13 14:52:31;;;;;;;21.13;6.80;;;;;;;24.76;nan;100834.25;4959866;28;20035;-76
2023/10/13 14:55:00;;;;;;;17.50;6.93;;;;;;;24.67;nan;100824.53;4962658;28;20062;-75
2023/10/13 14:57:25;;;;;;;11.60;6.68;;;;;;;24.65;nan;100835.63;4962823;28;20102;-76
2023/10/13 14:59:54;;;;;;;16.20;6.82;;;;;;;24.63;nan;100829.75;4960559;28;20035;-76
2023/10/13 15:02:20;;;;;;;;;;;;;;;24.64;nan;100839.44;4960162;28;20027;-75
2023/10/13 15:04:48;;;;;;;13.88;6.57;;;;;;;24.59;nan;100834.97;4963521;28;19910;-84
2023/10/13 15:07:18;;;;;;;23.77;7.25;;;;;;;24.52;nan;100831.09;4968289;28;20031;-84
2023/10/13 15:09:44;;;;;;;20.35;6.70;;;;;;;24.45;nan;100828.03;4967335;28;20118;-76
2023/10/13 15:12:13;;;;;;;17.58;6.82;;;;;;;24.40;nan;100824.38;4977541;28;20050;-84
2023/10/13 15:14:42;;;;;;;20.27;7.57;;;;;;;24.38;nan;100833.84;4971150;28;20034;-82
2023/10/13 15:17:09;;;;;;;16.85;7.50;;;;;;;24.36;nan;100838.75;4971049;28;20034;-83
2023/10/13 15:19:38;;;;;;;20.45;6.63;;;;;;;24.25;nan;100826.63;4973925;28;20059;-84
2023/10/13 15:22:07;;;;;;;20.50;7.40;;;;;;;24.21;nan;100829.16;4971322;28;20027;-83
2023/10/13 15:24:42;;;;;;;27.02;7.45;;;;;;;24.13;nan;100827.19;4967114;28;20031;-84
2023/10/13 15:27:08;;;;;;;23.27;6.63;;;;;;;24.07;nan;100825.72;4975952;28;20057;-87
2023/10/13 15:29:37;;;;;;;24.10;7.40;;;;;;;24.05;nan;100830.63;4966568;28;20389;-79
2023/10/13 15:34:30;;;;;;;22.90;7.90;;;;;;;23.98;nan;100834.50;4963196;28;20023;-76
2023/10/13 15:36:57;;;;;;;23.90;7.95;;;;;;;23.91;nan;100830.66;4962484;28;20083;-81
2023/10/13 15:39:23;;;;;;;25.70;8.10;;;;;;;23.78;nan;100821.53;4962448;28;20031;-79
2023/10/13 15:41:52;;;;;;;26.75;8.15;;;;;;;23.76;nan;100826.41;4967158;28;20094;-78
2023/10/13 15:44:24;;;;;;;26.73;8.32;;;;;;;23.75;nan;100838.25;4965698;28;20050;-76
2023/10/13 15:46:53;;;;;;;30.00;8.70;;;;;;;23.68;nan;100838.66;4967165;28;20842;-77
2023/10/13 15:49:19;;;;;;;40.75;8.82;;;;;;;23.52;nan;100824.75;4962346;28;20033;-77
2023/10/13 15:51:44;;;;;;;35.40;8.30;;;;;;;23.46;nan;100825.94;4964438;28;20030;-78
2023/10/13 15:54:16;;;;;;;26.83;9.30;;;;;;;23.42;nan;100834.94;4963752;28;20031;-78
2023/10/13 15:56:43;;;;;;;27.70;9.02;;;;;;;23.26;nan;100827.16;4961285;28;20449;-77
2023/10/13 15:59:09;;;;;;;26.15;10.05;;;;;;;23.18;nan;100832.44;4961356;28;20178;-79
2023/10/13 16:01:34;;;;;;;31.90;9.18;;;;;;;23.02;nan;100831.94;4962859;28;20022;-79
2023/10/13 16:04:07;;;;;;;24.15;8.10;;;;;;;22.98;nan;100842.47;4959403;28;20027;-76
2023/10/13 16:06:32;;;;;;;28.98;8.85;;;;;;;22.80;nan;100832.59;4961029;28;20027;-79
2023/10/13 16:08:57;;;;;;;32.28;8.90;;;;;;;22.78;nan;100845.53;4965654;28;20030;-82
2023/10/13 16:11:23;;;;;;;34.75;9.00;;;;;;;22.71;nan;100851.25;4982132;28;20058;-81
2023/10/13 16:13:52;;;;;;;22.27;8.35;;;;;;;22.60;nan;100839.94;4971407;28;20038;-79
2023/10/13 16:16:22;;;;;;;27.63;7.88;;;;;;;22.59;nan;100856.31;4982543;28;20058;-81
2023/10/13 16:18:48;;;;;;;21.15;8.05;;;;;;;22.46;nan;100849.81;4962357;28;20039;-80
2023/10/13 16:21:14;;;;;;;17.33;7.95;;;;;;;22.44;nan;100850.09;4977594;28;20049;-81